createdAt,value
2019-03-20T10:21:28.955Z,45.50
2019-03-20T10:28:55.450Z,25.78
2019-03-20T10:30:12.041Z,11.32
2019-03-20T10:31:28.588Z,8.16
2019-03-20T10:32:45.110Z,9.53
2019-03-20T10:34:01.630Z,6.97
2019-03-20T10:36:04.256Z,18.33
2019-03-20T10:37:30.892Z,13.92
2019-03-20T10:52:17.586Z,21.79
2019-03-20T10:53:44.162Z,13.31
2019-03-20T10:55:46.706Z,23.37
2019-03-20T10:57:13.215Z,12.71
2019-03-20T10:58:49.660Z,11.46
2019-03-20T11:00:26.102Z,9.51
2019-03-20T11:02:02.569Z,15.88
2019-03-20T11:03:39.005Z,11.96
2019-03-20T11:05:15.504Z,42.03
2019-03-20T11:06:52.126Z,12.86
2019-03-20T11:08:28.581Z,12.98
2019-03-20T11:10:05.140Z,21.61
2019-03-20T11:11:41.660Z,21.99
2019-03-20T11:13:18.133Z,26.43
2019-03-20T11:14:54.601Z,31.52
2019-03-20T11:16:31.061Z,28.44
2019-03-20T11:18:07.546Z,32.18
2019-03-20T11:19:44.129Z,28.22
2019-03-20T11:21:20.605Z,24.36
2019-03-20T11:22:57.125Z,28.10
2019-03-20T11:24:33.638Z,29.72
2019-03-20T11:26:10.052Z,38.64
2019-03-20T11:27:46.460Z,31.61
2019-03-20T11:29:22.995Z,33.07
2019-03-20T11:30:59.459Z,34.55
2019-03-20T11:32:35.931Z,29.83
2019-03-20T11:34:12.340Z,35.46
2019-03-20T11:35:48.800Z,31.99
2019-03-20T11:37:25.337Z,34.26
2019-03-20T11:39:01.817Z,36.37
2019-03-20T11:40:38.362Z,73.28
2019-03-20T11:42:14.823Z,92.65
2019-03-20T11:43:51.368Z,103.06
2019-03-20T11:45:27.846Z,120.43
2019-03-20T11:47:04.347Z,108.74
2019-03-20T11:48:40.788Z,129.22
2019-03-20T11:50:17.311Z,118.73
2019-03-20T11:51:53.771Z,102.78
2019-03-20T11:53:30.191Z,103.77
2019-03-20T11:55:06.640Z,108.10
2019-03-20T11:56:43.333Z,109.58
2019-03-20T11:58:19.901Z,113.17
2019-03-20T11:59:56.339Z,113.45
2019-03-20T12:01:32.838Z,112.82
2019-03-20T12:03:09.417Z,116.94
2019-03-20T12:04:45.832Z,111.99
2019-03-20T12:06:22.348Z,99.01
2019-03-20T12:07:58.785Z,100.73
2019-03-20T12:09:41.057Z,97.00
2019-03-20T12:11:11.174Z,96.38
2019-03-20T12:12:47.624Z,95.36
2019-03-20T12:14:24.091Z,90.85
2019-03-20T12:16:00.555Z,92.21
2019-03-20T12:17:36.999Z,87.85
2019-03-20T12:19:13.437Z,78.47
2019-03-20T12:20:49.887Z,86.85
2019-03-20T12:22:26.376Z,80.98
2019-03-20T12:24:03.110Z,79.30
2019-03-20T12:25:39.670Z,76.11
2019-03-20T12:27:16.175Z,70.15
2019-03-20T12:28:52.620Z,71.08
2019-03-20T12:30:29.100Z,108.76
2019-03-20T12:32:05.554Z,100.46
2019-03-20T12:33:42.072Z,108.35
2019-03-20T12:35:18.514Z,103.39
2019-03-20T12:36:56.599Z,98.34
2019-03-20T12:38:30.940Z,101.74
2019-03-20T12:40:07.405Z,86.54
2019-03-20T12:41:43.893Z,112.11
2019-03-20T12:43:20.444Z,94.09
2019-03-20T12:44:56.884Z,92.68
2019-03-20T12:46:41.481Z,98.54
2019-03-20T12:48:09.307Z,102.91
2019-03-20T12:49:45.743Z,92.33
2019-03-20T12:51:22.299Z,100.88
2019-03-20T12:53:01.366Z,126.47
2019-03-20T12:54:34.783Z,103.38
2019-03-20T12:56:11.346Z,113.45
2019-03-20T12:57:47.806Z,137.07
2019-03-20T12:59:24.409Z,112.82
2019-03-20T13:01:00.976Z,123.46
2019-03-20T13:02:37.489Z,115.16
2019-03-20T13:04:13.981Z,113.63
2019-03-20T13:05:50.419Z,102.97
2019-03-20T13:07:26.866Z,94.37
2019-03-20T13:09:03.831Z,98.49
2019-03-20T13:10:39.275Z,104.68
2019-03-20T13:12:15.735Z,108.69
2019-03-20T13:13:52.171Z,107.17
2019-03-20T13:15:28.639Z,103.04
2019-03-20T13:17:05.103Z,101.34
2019-03-20T13:18:41.515Z,93.87
2019-03-20T13:20:18.002Z,88.87
2019-03-20T13:21:54.387Z,84.77
2019-03-20T13:23:30.796Z,86.58
2019-03-20T13:25:07.290Z,93.99
2019-03-20T13:26:43.818Z,82.72
2019-03-20T13:28:20.393Z,81.46
2019-03-20T13:29:56.795Z,85.03
2019-03-20T13:31:33.238Z,76.24
2019-03-20T13:33:09.675Z,81.51
2019-03-20T13:34:46.192Z,84.67
2019-03-20T13:36:22.636Z,89.58
2019-03-20T13:37:59.085Z,81.38
2019-03-20T13:39:35.482Z,78.79
2019-03-20T13:41:12.071Z,74.74
2019-03-20T13:42:48.361Z,71.41
2019-03-20T13:44:24.818Z,72.38
2019-03-20T13:45:59.818Z,69.08
2019-03-20T13:47:36.368Z,78.75
2019-03-20T13:49:12.845Z,68.11
2019-03-20T13:50:49.275Z,62.52
2019-03-20T13:52:25.720Z,62.96
2019-03-20T13:54:02.171Z,65.84
2019-03-20T13:55:38.607Z,62.09
2019-03-20T13:57:15.299Z,67.00
2019-03-20T13:58:52.396Z,61.96
2019-03-20T14:00:27.816Z,59.67
2019-03-20T14:02:04.242Z,61.62
2019-03-20T14:03:40.728Z,57.36
2019-03-20T14:05:17.270Z,58.27
2019-03-20T14:06:53.878Z,58.50
2019-03-20T14:08:30.323Z,54.49
2019-03-20T14:10:06.804Z,50.12
2019-03-20T14:11:43.290Z,55.44
2019-03-20T14:13:19.728Z,53.29
2019-03-20T14:14:56.188Z,53.37
2019-03-20T14:16:32.889Z,49.73
2019-03-20T14:18:09.393Z,46.56
2019-03-20T14:19:45.875Z,53.97
2019-03-20T14:21:22.329Z,50.26
2019-03-20T14:22:58.897Z,59.89
2019-03-20T14:24:36.099Z,49.85
2019-03-20T14:26:11.387Z,45.19
2019-03-20T14:27:47.827Z,44.15
2019-03-20T14:29:24.259Z,47.89
2019-03-20T14:31:00.683Z,45.10
2019-03-20T14:32:37.139Z,42.32
2019-03-20T14:34:13.567Z,42.87
2019-03-20T14:35:50.048Z,41.01
2019-03-20T14:37:26.546Z,41.28
2019-03-20T14:39:05.023Z,41.96
2019-03-20T14:40:38.998Z,41.32
2019-03-20T14:42:15.452Z,40.87
2019-03-20T14:43:51.980Z,39.17
2019-03-20T14:45:28.429Z,35.52
2019-03-20T14:47:04.880Z,34.78
2019-03-20T14:48:41.362Z,35.98
2019-03-20T14:50:17.835Z,35.30
2019-03-20T14:51:54.324Z,42.52
2019-03-20T14:53:30.775Z,35.65
2019-03-20T14:55:07.556Z,34.11
2019-03-20T14:56:44.088Z,33.01
2019-03-20T14:58:20.533Z,35.45
2019-03-20T14:59:56.985Z,36.02
2019-03-20T15:01:33.407Z,34.95
2019-03-20T15:03:09.905Z,36.30
2019-03-20T15:04:46.450Z,35.05
2019-03-20T15:06:22.915Z,37.34
2019-03-20T15:07:59.390Z,39.94
2019-03-20T15:09:35.807Z,40.94
2019-03-20T15:11:12.218Z,37.69
2019-03-20T15:12:48.655Z,38.43
2019-03-20T15:14:25.202Z,33.60
2019-03-20T15:16:01.658Z,35.25
2019-03-20T15:17:38.112Z,33.39
2019-03-20T15:19:14.585Z,35.36
2019-03-20T15:20:51.005Z,31.64
2019-03-20T15:22:27.460Z,34.54
2019-03-20T15:24:03.906Z,34.49
2019-03-20T15:25:40.371Z,32.36
2019-03-20T15:27:16.812Z,32.95
2019-03-20T15:28:53.310Z,32.91
2019-03-20T15:30:29.859Z,34.81
2019-03-20T15:32:06.247Z,37.17
2019-03-20T15:33:42.705Z,35.76
2019-03-20T15:35:19.191Z,31.73
2019-03-20T15:36:55.667Z,33.91
2019-03-20T15:38:44.179Z,31.25
2019-03-20T15:40:10.649Z,36.70
2019-03-20T15:41:47.444Z,33.65
2019-03-20T15:43:35.908Z,34.33
2019-03-20T15:45:14.357Z,35.50
2019-03-20T15:46:55.526Z,35.90
2019-03-20T15:48:13.152Z,33.25
2019-03-20T15:50:01.654Z,32.23
2019-03-20T15:51:43.392Z,32.20
2019-03-20T15:53:23.718Z,34.12
2019-03-20T15:54:52.221Z,32.91
2019-03-20T15:56:18.618Z,34.12
2019-03-20T15:58:07.242Z,29.70
2019-03-20T15:59:36.649Z,28.77
2019-03-20T16:01:25.141Z,28.45
2019-03-20T16:02:51.583Z,30.83
2019-03-20T16:04:40.074Z,25.33
2019-03-20T16:06:18.517Z,28.59
2019-03-20T16:07:57.001Z,28.41
2019-03-20T16:09:35.835Z,29.39
2019-03-20T16:11:14.317Z,28.16
2019-03-20T16:12:40.800Z,26.94
2019-03-20T16:14:17.197Z,22.32
2019-03-20T16:15:53.686Z,22.36
2019-03-20T16:17:30.186Z,24.18
2019-03-20T16:19:06.635Z,19.99
2019-03-20T16:20:43.144Z,23.40
2019-03-20T16:22:19.624Z,21.20
2019-03-20T16:23:56.083Z,23.52
2019-03-20T16:25:32.606Z,25.33
2019-03-20T16:27:09.078Z,22.59
2019-03-20T16:28:45.553Z,22.41
2019-03-20T16:30:22.016Z,19.24
2019-03-20T16:31:58.522Z,19.90
2019-03-20T16:33:35.029Z,20.72
2019-03-20T16:35:11.515Z,20.23
2019-03-20T16:36:48.021Z,17.63
2019-03-20T16:38:24.716Z,20.26
2019-03-20T16:40:01.226Z,17.62
2019-03-20T16:41:37.769Z,21.54
2019-03-20T16:43:14.155Z,17.11
2019-03-20T16:44:50.582Z,18.43
2019-03-20T16:46:27.144Z,17.23
2019-03-20T16:48:03.619Z,17.74
2019-03-20T16:49:40.078Z,15.88
2019-03-20T16:51:16.574Z,16.80
2019-03-20T16:52:53.089Z,15.60
2019-03-20T16:54:29.537Z,16.75
2019-03-20T16:56:06.020Z,15.46
2019-03-20T16:57:42.730Z,16.78
2019-03-20T16:59:19.215Z,16.30
2019-03-20T17:00:55.650Z,16.22
2019-03-20T17:02:32.081Z,14.79
2019-03-20T17:04:08.642Z,16.50
2019-03-20T17:05:45.151Z,16.55
2019-03-20T17:07:21.606Z,16.35
2019-03-20T17:08:58.104Z,14.24
2019-03-20T17:10:34.564Z,13.73
2019-03-20T17:12:10.997Z,16.42
2019-03-20T17:13:47.435Z,17.04
2019-03-20T17:15:23.901Z,15.16
2019-03-20T17:17:00.330Z,15.61
2019-03-20T17:18:36.808Z,15.11
2019-03-20T17:20:13.590Z,14.36
2019-03-20T17:21:50.092Z,12.43
2019-03-20T17:23:26.536Z,13.78
2019-03-20T17:25:02.974Z,15.37
2019-03-20T17:26:39.439Z,14.66
2019-03-20T17:28:15.890Z,12.47
2019-03-20T17:29:52.536Z,12.60
2019-03-20T17:31:28.997Z,12.64
2019-03-20T17:33:05.544Z,13.05
2019-03-20T17:34:41.981Z,12.76
2019-03-20T17:36:18.442Z,13.34
2019-03-20T17:37:54.927Z,12.03
2019-03-20T17:39:31.719Z,12.66
2019-03-20T17:41:08.185Z,14.76
2019-03-20T17:42:44.705Z,14.04
2019-03-20T17:44:21.142Z,11.10
2019-03-20T17:45:57.649Z,11.56
2019-03-20T17:47:34.086Z,12.05
2019-03-20T17:49:10.596Z,11.93
2019-03-20T17:50:46.996Z,12.94
2019-03-20T17:52:23.497Z,12.99
2019-03-20T17:53:59.936Z,11.61
2019-03-20T17:55:36.434Z,13.26
2019-03-20T17:57:12.897Z,12.50
2019-03-20T17:58:49.568Z,11.82
2019-03-20T18:00:26.057Z,11.13
2019-03-20T18:02:01.173Z,11.87
2019-03-20T18:03:37.631Z,13.05
2019-03-20T18:05:14.098Z,10.79
2019-03-20T18:06:50.655Z,12.03
2019-03-20T18:08:27.129Z,10.56
2019-03-20T18:10:03.628Z,9.73
2019-03-20T18:11:47.060Z,11.35
2019-03-20T18:13:16.127Z,11.17
2019-03-20T18:14:52.561Z,10.61
2019-03-20T18:16:29.024Z,11.39
2019-03-20T18:18:05.483Z,10.42
2019-03-20T18:19:42.078Z,11.75
2019-03-20T18:21:18.560Z,10.92
2019-03-20T18:22:55.065Z,10.41
2019-03-20T18:24:31.488Z,9.14
2019-03-20T18:26:06.734Z,10.63
2019-03-20T18:27:43.219Z,10.92
2019-03-20T18:29:19.655Z,9.46
2019-03-20T18:30:56.083Z,8.75
2019-03-20T18:32:32.529Z,9.54
2019-03-20T18:34:09.036Z,12.00
2019-03-20T18:35:45.515Z,8.80
2019-03-20T18:37:21.965Z,9.58
2019-03-20T18:38:58.393Z,9.44
2019-03-20T18:40:34.955Z,9.47
2019-03-20T18:42:11.415Z,9.88
2019-03-20T18:43:47.906Z,10.31
2019-03-20T18:45:24.408Z,8.72
2019-03-20T18:47:00.914Z,9.77
2019-03-20T18:48:37.375Z,8.47
2019-03-20T18:50:13.808Z,10.59
2019-03-20T18:51:50.359Z,9.78
2019-03-20T18:53:26.802Z,8.25
2019-03-20T18:55:03.254Z,10.23
2019-03-20T18:56:39.694Z,8.57
2019-03-20T18:58:16.205Z,8.75
2019-03-20T18:59:52.707Z,9.06
2019-03-20T19:01:29.396Z,7.77
2019-03-20T19:03:05.852Z,7.82
2019-03-20T19:04:42.335Z,8.42
2019-03-20T19:06:18.797Z,8.77
2019-03-20T19:07:55.247Z,10.15
2019-03-20T19:09:31.691Z,9.28
2019-03-20T19:11:08.183Z,10.48
2019-03-20T19:12:44.721Z,11.51
2019-03-20T19:14:21.153Z,10.29
2019-03-20T19:15:57.616Z,11.35
2019-03-20T19:17:34.072Z,9.96
2019-03-20T19:19:10.555Z,9.16
2019-03-20T19:20:47.011Z,10.56
2019-03-20T19:22:23.812Z,9.59
2019-03-20T19:24:00.269Z,9.94
2019-03-20T19:25:36.716Z,8.52
2019-03-20T19:27:13.220Z,9.11
2019-03-20T19:28:49.681Z,9.90
2019-03-20T19:30:26.136Z,10.49
2019-03-20T19:32:02.602Z,10.28
2019-03-20T19:33:39.055Z,9.89
2019-03-20T19:35:15.566Z,8.68
2019-03-20T19:36:52.008Z,8.68
2019-03-20T19:38:34.768Z,7.05
2019-03-20T19:40:04.452Z,8.14
2019-03-20T19:41:40.987Z,9.47
2019-03-20T19:43:17.539Z,9.64
2019-03-20T19:44:54.012Z,8.83
2019-03-20T19:46:30.457Z,8.95
2019-03-20T19:48:06.927Z,7.63
2019-03-20T19:49:43.378Z,8.67
2019-03-20T19:51:19.839Z,9.09
2019-03-20T19:52:56.510Z,7.97
2019-03-20T19:54:32.983Z,7.77
2019-03-20T19:56:09.504Z,8.52
2019-03-20T19:57:45.991Z,9.09
2019-03-20T19:59:22.498Z,8.26
2019-03-20T20:00:58.943Z,7.80
2019-03-20T20:02:35.455Z,7.55
2019-03-20T20:04:12.002Z,8.21
2019-03-20T20:05:48.450Z,7.81
2019-03-20T20:07:25.136Z,8.75
2019-03-20T20:09:01.418Z,8.50
2019-03-20T20:10:37.859Z,6.99
2019-03-20T20:12:14.356Z,8.50
2019-03-20T20:13:50.827Z,9.47
2019-03-20T20:15:27.282Z,8.28
2019-03-20T20:17:03.719Z,8.42
2019-03-20T20:18:40.192Z,10.33
2019-03-20T20:20:15.125Z,9.70
2019-03-20T20:21:51.595Z,7.97
2019-03-20T20:23:28.043Z,7.61
2019-03-20T20:25:04.474Z,7.38
2019-03-20T20:26:41.008Z,7.72
2019-03-20T20:28:17.694Z,7.18
2019-03-20T20:29:53.956Z,8.25
2019-03-20T20:31:30.681Z,7.71
2019-03-20T20:33:07.154Z,8.47
2019-03-20T20:34:43.602Z,9.22
2019-03-20T20:36:20.098Z,8.29
2019-03-20T20:37:56.545Z,7.65
2019-03-20T20:39:33.128Z,8.27
2019-03-20T20:41:09.599Z,7.87
2019-03-20T20:42:46.038Z,8.97
2019-03-20T20:44:22.499Z,8.09
2019-03-20T20:45:58.941Z,6.99
2019-03-20T20:47:35.414Z,7.88
2019-03-20T20:49:11.865Z,6.99
2019-03-20T20:50:48.396Z,7.04
2019-03-20T20:52:24.867Z,7.89
2019-03-20T20:54:01.374Z,7.97
2019-03-20T20:55:37.789Z,7.18
2019-03-20T20:57:14.206Z,6.98
2019-03-20T20:58:50.714Z,7.76
2019-03-20T21:00:27.232Z,7.09
2019-03-20T21:02:03.683Z,6.53
2019-03-20T21:03:40.145Z,7.70
2019-03-20T21:05:16.570Z,7.94
2019-03-20T21:06:53.151Z,6.72
2019-03-20T21:08:29.460Z,6.73
2019-03-20T21:10:05.956Z,7.71
2019-03-20T21:11:42.377Z,8.80
2019-03-20T21:13:18.875Z,7.63
2019-03-20T21:14:55.542Z,6.24
2019-03-20T21:16:31.953Z,6.38
2019-03-20T21:18:08.371Z,7.53
2019-03-20T21:19:44.909Z,7.19
2019-03-20T21:21:21.372Z,6.55
2019-03-20T21:22:57.931Z,7.75
2019-03-20T21:24:34.426Z,9.00
2019-03-20T21:26:10.889Z,7.04
2019-03-20T21:27:47.319Z,8.49
2019-03-20T21:29:23.782Z,7.36
2019-03-20T21:31:00.240Z,7.48
2019-03-20T21:32:36.701Z,6.69
2019-03-20T21:34:13.314Z,7.68
2019-03-20T21:35:49.748Z,7.41
2019-03-20T21:37:26.191Z,8.02
2019-03-20T21:39:02.647Z,6.98
2019-03-20T21:40:39.145Z,8.24
2019-03-20T21:42:15.697Z,8.45
2019-03-20T21:43:52.252Z,7.61
2019-03-20T21:45:28.711Z,8.18
2019-03-20T21:47:05.178Z,7.77
2019-03-20T21:48:41.608Z,7.33
2019-03-20T21:50:18.019Z,7.11
2019-03-20T21:51:54.443Z,7.99
2019-03-20T21:53:31.126Z,7.54
2019-03-20T21:55:07.537Z,7.71
2019-03-20T21:56:44.004Z,7.90
2019-03-20T21:58:20.508Z,7.44
2019-03-20T21:59:56.925Z,8.29
2019-03-20T22:01:33.364Z,9.82
2019-03-20T22:03:09.950Z,7.73
2019-03-20T22:04:46.400Z,8.66
2019-03-20T22:06:22.824Z,8.04
2019-03-20T22:07:59.295Z,8.19
2019-03-20T22:09:35.825Z,9.91
2019-03-20T22:11:12.175Z,8.77
2019-03-20T22:12:48.671Z,9.55
2019-03-20T22:14:25.136Z,7.74
2019-03-20T22:16:01.673Z,8.03
2019-03-20T22:17:38.259Z,7.97
2019-03-20T22:19:14.697Z,8.22
2019-03-20T22:20:51.126Z,8.29
2019-03-20T22:22:27.649Z,8.91
2019-03-20T22:24:04.069Z,7.72
2019-03-20T22:25:40.487Z,8.03
2019-03-20T22:27:17.096Z,9.64
2019-03-20T22:28:53.666Z,7.94
2019-03-20T22:30:29.966Z,8.47
2019-03-20T22:32:06.418Z,7.30
2019-03-20T22:33:42.855Z,9.50
2019-03-20T22:35:19.314Z,9.22
2019-03-20T22:36:55.887Z,8.19
2019-03-20T22:38:32.328Z,9.28
2019-03-20T22:40:08.798Z,8.91
2019-03-20T22:41:45.235Z,9.71
2019-03-20T22:43:29.663Z,8.16
2019-03-20T22:44:57.750Z,7.61
2019-03-20T22:46:34.407Z,8.97
2019-03-20T22:48:10.898Z,8.53
2019-03-20T22:49:47.398Z,7.24
2019-03-20T22:51:23.888Z,9.26
2019-03-20T22:53:00.341Z,8.49
2019-03-20T22:54:36.855Z,8.59
2019-03-20T22:56:13.343Z,7.82
2019-03-20T22:57:49.822Z,8.57
2019-03-20T22:59:26.281Z,7.98
2019-03-20T23:01:02.788Z,8.31
2019-03-20T23:02:39.274Z,8.33
2019-03-20T23:04:15.806Z,8.32
2019-03-20T23:05:52.271Z,7.92
2019-03-20T23:07:28.812Z,8.67
2019-03-20T23:09:05.255Z,8.20
2019-03-20T23:10:41.712Z,8.16
2019-03-20T23:12:18.244Z,9.08
2019-03-20T23:13:54.768Z,10.24
2019-03-20T23:15:31.268Z,7.75
2019-03-20T23:17:07.985Z,8.38
2019-03-20T23:18:44.444Z,7.60
2019-03-20T23:20:20.888Z,8.59
2019-03-20T23:21:57.361Z,8.20
2019-03-20T23:23:33.801Z,8.76
2019-03-20T23:25:10.275Z,7.52
2019-03-20T23:26:46.735Z,7.28
2019-03-20T23:28:23.171Z,9.00
2019-03-20T23:29:59.647Z,7.18
2019-03-20T23:31:36.125Z,7.91
2019-03-20T23:33:12.557Z,7.13
2019-03-20T23:34:48.990Z,7.30
2019-03-20T23:36:25.488Z,7.85
2019-03-20T23:38:01.954Z,7.62
2019-03-20T23:39:38.366Z,7.20
2019-03-20T23:41:14.830Z,8.70
2019-03-20T23:42:51.272Z,9.37
2019-03-20T23:44:27.744Z,8.23
2019-03-20T23:46:04.196Z,8.19
2019-03-20T23:47:40.935Z,7.97
2019-03-20T23:49:17.383Z,8.14
2019-03-20T23:50:53.799Z,8.16
2019-03-20T23:52:28.751Z,8.51
2019-03-20T23:54:05.221Z,7.36
2019-03-20T23:55:41.700Z,7.63
2019-03-20T23:57:18.257Z,8.11
2019-03-20T23:58:54.771Z,7.59
